createdAt,value
2022-10-05T00:02:26.281Z,12.44
2022-10-05T00:17:32.636Z,12.31
2022-10-05T00:32:38.304Z,12.25
2022-10-05T00:47:53.652Z,12.19
2022-10-05T01:03:05.458Z,12.19
2022-10-05T01:18:19.236Z,12.19
2022-10-05T01:33:32.097Z,12.00
2022-10-05T01:48:47.971Z,12.06
2022-10-05T02:03:58.565Z,11.81
2022-10-05T02:19:09.797Z,11.88
2022-10-05T02:34:29.295Z,11.75
2022-10-05T02:49:40.098Z,11.69
2022-10-05T03:04:58.721Z,11.81
2022-10-05T03:20:19.375Z,11.75
2022-10-05T03:35:31.708Z,11.63
2022-10-05T03:50:45.957Z,11.75
2022-10-05T04:05:55.426Z,11.69
2022-10-05T04:21:04.355Z,11.56
2022-10-05T04:36:20.923Z,11.69
2022-10-05T04:51:38.126Z,11.81
2022-10-05T05:06:53.839Z,11.88
2022-10-05T05:22:05.266Z,11.88
2022-10-05T05:37:20.880Z,11.94
2022-10-05T05:52:30.251Z,11.88
2022-10-05T06:07:39.156Z,11.88
2022-10-05T06:22:47.750Z,12.13
2022-10-05T06:38:13.583Z,12.25
2022-10-05T06:53:34.406Z,12.25
2022-10-05T07:09:00.882Z,12.44
2022-10-05T07:24:17.117Z,12.56
2022-10-05T07:39:55.241Z,12.44
2022-10-05T07:55:04.149Z,12.63
2022-10-05T08:10:27.355Z,12.75
2022-10-05T08:25:44.791Z,13.00
2022-10-05T08:41:25.945Z,13.19
2022-10-05T08:56:42.747Z,13.50
2022-10-05T09:12:02.699Z,13.69
2022-10-05T09:27:16.911Z,14.06
2022-10-05T09:42:56.157Z,14.25
2022-10-05T09:58:30.661Z,14.50
2022-10-05T10:13:56.790Z,14.69
2022-10-05T10:45:20.881Z,15.00
2022-10-05T11:00:39.374Z,15.25
2022-10-05T11:16:14.573Z,15.56
2022-10-05T11:32:06.975Z,15.75
2022-10-05T11:47:20.232Z,16.00
2022-10-05T12:03:03.685Z,15.75
2022-10-05T12:18:17.078Z,15.81
2022-10-05T12:33:28.466Z,15.88
2022-10-05T12:48:57.570Z,15.94
2022-10-05T13:04:12.417Z,16.00
2022-10-05T13:19:39.694Z,16.00
2022-10-05T13:34:54.249Z,16.13
2022-10-05T13:50:05.211Z,16.06
2022-10-05T14:05:20.228Z,16.00
2022-10-05T14:20:29.013Z,15.94
2022-10-05T14:35:49.304Z,15.88
2022-10-05T14:50:57.301Z,15.81
2022-10-05T15:06:04.078Z,15.69
2022-10-05T15:21:36.235Z,15.69
2022-10-05T15:36:48.209Z,15.56
2022-10-05T15:52:01.790Z,15.50
2022-10-05T16:07:31.458Z,15.44
2022-10-05T16:22:43.588Z,15.25
2022-10-05T16:37:57.725Z,15.19
2022-10-05T16:53:06.571Z,15.00
2022-10-05T17:08:40.588Z,14.88
2022-10-05T17:23:55.739Z,14.75
2022-10-05T17:39:17.012Z,14.69
2022-10-05T17:54:42.124Z,14.50
2022-10-05T18:10:29.119Z,14.31
2022-10-05T18:25:45.308Z,14.31
2022-10-05T18:40:57.688Z,14.06
2022-10-05T18:56:13.978Z,13.94
2022-10-05T19:11:24.865Z,13.81
2022-10-05T19:26:50.214Z,13.75
2022-10-05T19:42:08.432Z,13.63
2022-10-05T19:57:19.236Z,13.50
2022-10-05T20:12:45.219Z,13.38
2022-10-05T20:27:52.839Z,13.31
2022-10-05T20:42:59.094Z,13.25
2022-10-05T20:58:05.469Z,13.31
2022-10-05T21:13:11.240Z,13.00
2022-10-05T21:28:17.075Z,12.94
2022-10-05T21:43:23.033Z,13.13
2022-10-05T21:58:30.222Z,13.13
2022-10-05T22:13:43.440Z,12.81
2022-10-05T22:28:49.974Z,12.81
2022-10-05T22:43:55.778Z,12.69
2022-10-05T22:59:01.410Z,12.69
2022-10-05T23:14:06.953Z,12.88
2022-10-05T23:29:12.582Z,12.69
2022-10-05T23:44:18.198Z,12.69
2022-10-05T23:59:23.734Z,12.75
